Tarpon Springs, FL (34688)

12:54 AM EDT on August 30, 2016 (GMT -0400)
Trinity, FL | | Change Station

Elev 25 ft 28.18 °N, 82.68 °W | Updated 15 seconds ago

Scattered Clouds
Scattered Clouds
76.0 °F
Feels Like 76 °F
N
0.0
Wind Variable Wind from ENE
Gusts 3.0 mph

Today
High -- | Low -- °F
--% Chance of Precip.
Yesterday
High -- | Low -- °F
Precip. -- in
Pressure 29.94 in
Visibility 10.0 miles
Clouds Few 2000 ft
Few 6000 ft
Scattered Clouds 25000 ft
Heat Index 76 °F
Dew Point 74 °F
Humidity 94%
Rainfall 0.00 in
Snow Depth Not available.
7:08 AM 7:53 PM
Waning Crescent, 5% visible
METAR KTPA 300353Z 06004KT 10SM FEW020 FEW060 SCT250 26/22 A2994 RMK AO2 SLP138 T02560222
Pressure 29.94 in
Visibility 10.0 miles
Clouds Few 2000 ft
Few 6000 ft
Scattered Clouds 25000 ft
Heat Index 76 °F
Dew Point 74 °F
Humidity 94%
Rainfall 0.00 in
Snow Depth Not available.
7:08 AM 7:53 PM
Waning Crescent, 5% visible
METAR KTPA 300353Z 06004KT 10SM FEW020 FEW060 SCT250 26/22 A2994 RMK AO2 SLP138 T02560222
Tropical Depression Nine was centered about 170 miles west-southwest of Key West, Florida, as of late Monday morning. The depression may struggle a bit in the southern Gulf of Mexico before finally making a Gulf Coast landfall later this week with soaking rain and gusty winds.

This latest system was designated a tropical depression Sunday after a Hurricane Hunter reconnaissance mission finally found a sufficiently organized low-pressure center with collocated shower and thunderstorm activity.

10-Day Weather Forecast

Almanac

Astronomy

Aug. 30, 2016 Rise Set
Actual Time
Civil Twilight
Nautical Twilight
Astronomical Twilight
Moon
Length of Visible Light
Length of Day
Tomorrow will be .
, % of the Moon is Illuminated

Today's Extremes

State Highs State Lows

Community

WunderPhotos

Upload Photos

1,935,791 photos uploaded!

WunderBlog® & News

Nearby

Air Quality

  Air Quality AQ Index Pollutant
Not available.

Snow Depth

Station Depth Elevation

Earthquake Activity

City Distance Mag. Time & Date
Minimum magnitude displayed is 2.5.

Coastal Water Temperatures

Place Temperature

Stations

Nearby Weather Stations

Station Location Temp. Windchill Dew Point Humidity Wind Precip. Elev Updated Type
                   

Watches & Warnings

There are currently no watches in effect.